sensor_id;sensor_type;location;lat;lon;timestamp;P1;durP1;ratioP1;P2;durP2;ratioP2
70010;SDS011;59543;37.950;-122.338;2023-04-08T00:00:16;3.40;;;0.82;;
70010;SDS011;59543;37.950;-122.338;2023-04-08T00:02:42;4.13;;;0.70;;
70010;SDS011;59543;37.950;-122.338;2023-04-08T00:05:08;3.75;;;0.63;;
70010;SDS011;59543;37.950;-122.338;2023-04-08T00:07:35;1.35;;;0.60;;
70010;SDS011;59543;37.950;-122.338;2023-04-08T00:10:01;2.30;;;0.40;;
70010;SDS011;59543;37.950;-122.338;2023-04-08T00:12:28;3.60;;;0.60;;
70010;SDS011;59543;37.950;-122.338;2023-04-08T00:14:54;2.67;;;0.73;;
70010;SDS011;59543;37.950;-122.338;2023-04-08T00:17:20;6.15;;;1.40;;
70010;SDS011;59543;37.950;-122.338;2023-04-08T00:19:47;8.77;;;2.00;;
70010;SDS011;59543;37.950;-122.338;2023-04-08T00:22:13;5.38;;;1.38;;
70010;SDS011;59543;37.950;-122.338;2023-04-08T00:24:40;3.72;;;1.08;;
70010;SDS011;59543;37.950;-122.338;2023-04-08T00:27:06;5.50;;;1.15;;
70010;SDS011;59543;37.950;-122.338;2023-04-08T00:29:32;7.00;;;1.42;;
70010;SDS011;59543;37.950;-122.338;2023-04-08T00:31:58;6.10;;;1.50;;
70010;SDS011;59543;37.950;-122.338;2023-04-08T00:34:25;7.18;;;1.75;;
70010;SDS011;59543;37.950;-122.338;2023-04-08T00:36:51;10.07;;;1.75;;
70010;SDS011;59543;37.950;-122.338;2023-04-08T00:39:17;6.47;;;1.50;;
70010;SDS011;59543;37.950;-122.338;2023-04-08T00:41:43;6.85;;;1.05;;
70010;SDS011;59543;37.950;-122.338;2023-04-08T00:44:10;8.43;;;1.70;;
70010;SDS011;59543;37.950;-122.338;2023-04-08T00:46:37;6.55;;;1.42;;
70010;SDS011;59543;37.950;-122.338;2023-04-08T00:49:05;7.05;;;1.33;;
70010;SDS011;59543;37.950;-122.338;2023-04-08T00:51:34;10.20;;;1.58;;
70010;SDS011;59543;37.950;-122.338;2023-04-08T00:54:01;12.75;;;1.90;;
70010;SDS011;59543;37.950;-122.338;2023-04-08T00:56:31;3.05;;;0.80;;
70010;SDS011;59543;37.950;-122.338;2023-04-08T00:59:00;4.43;;;1.00;;
70010;SDS011;59543;37.950;-122.338;2023-04-08T01:01:48;5.63;;;0.82;;
70010;SDS011;59543;37.950;-122.338;2023-04-08T01:04:32;6.30;;;1.17;;
70010;SDS011;59543;37.950;-122.338;2023-04-08T01:07:46;4.88;;;0.63;;
70010;SDS011;59543;37.950;-122.338;2023-04-08T01:10:19;8.02;;;1.05;;
70010;SDS011;59543;37.950;-122.338;2023-04-08T01:12:56;7.07;;;1.27;;
70010;SDS011;59543;37.950;-122.338;2023-04-08T01:15:28;7.60;;;1.67;;
70010;SDS011;59543;37.950;-122.338;2023-04-08T01:17:57;6.43;;;1.92;;
70010;SDS011;59543;37.950;-122.338;2023-04-08T01:20:26;9.52;;;1.80;;
70010;SDS011;59543;37.950;-122.338;2023-04-08T01:23:02;9.98;;;1.77;;
70010;SDS011;59543;37.950;-122.338;2023-04-08T01:25:33;10.07;;;1.85;;
70010;SDS011;59543;37.950;-122.338;2023-04-08T01:28:10;8.00;;;1.73;;
70010;SDS011;59543;37.950;-122.338;2023-04-08T01:30:40;6.28;;;1.50;;
70010;SDS011;59543;37.950;-122.338;2023-04-08T01:33:11;9.20;;;1.95;;
70010;SDS011;59543;37.950;-122.338;2023-04-08T01:35:40;9.25;;;1.55;;
70010;SDS011;59543;37.950;-122.338;2023-04-08T01:38:07;8.00;;;1.85;;
70010;SDS011;59543;37.950;-122.338;2023-04-08T01:40:36;6.25;;;1.55;;
70010;SDS011;59543;37.950;-122.338;2023-04-08T01:43:08;7.45;;;1.33;;
70010;SDS011;59543;37.950;-122.338;2023-04-08T01:45:37;12.07;;;2.33;;
70010;SDS011;59543;37.950;-122.338;2023-04-08T01:48:03;11.00;;;1.92;;
70010;SDS011;59543;37.950;-122.338;2023-04-08T01:50:31;8.00;;;1.95;;
70010;SDS011;59543;37.950;-122.338;2023-04-08T01:52:59;11.68;;;1.48;;
70010;SDS011;59543;37.950;-122.338;2023-04-08T01:55:26;4.50;;;0.90;;
70010;SDS011;59543;37.950;-122.338;2023-04-08T01:57:53;8.18;;;1.25;;
70010;SDS011;59543;37.950;-122.338;2023-04-08T02:00:24;6.65;;;1.23;;
70010;SDS011;59543;37.950;-122.338;2023-04-08T02:02:52;7.97;;;1.50;;
70010;SDS011;59543;37.950;-122.338;2023-04-08T02:05:20;5.70;;;1.30;;
70010;SDS011;59543;37.950;-122.338;2023-04-08T02:07:46;9.15;;;1.90;;
70010;SDS011;59543;37.950;-122.338;2023-04-08T02:10:13;7.45;;;1.60;;
70010;SDS011;59543;37.950;-122.338;2023-04-08T02:12:40;7.88;;;1.70;;
70010;SDS011;59543;37.950;-122.338;2023-04-08T02:15:07;6.95;;;1.27;;
70010;SDS011;59543;37.950;-122.338;2023-04-08T02:17:44;18.23;;;1.73;;
70010;SDS011;59543;37.950;-122.338;2023-04-08T02:20:23;4.75;;;1.30;;
70010;SDS011;59543;37.950;-122.338;2023-04-08T02:25:29;7.85;;;1.77;;
70010;SDS011;59543;37.950;-122.338;2023-04-08T02:27:56;9.75;;;1.55;;
70010;SDS011;59543;37.950;-122.338;2023-04-08T02:30:27;15.35;;;1.98;;
70010;SDS011;59543;37.950;-122.338;2023-04-08T02:32:55;5.75;;;1.52;;
70010;SDS011;59543;37.950;-122.338;2023-04-08T02:35:23;9.35;;;1.95;;
70010;SDS011;59543;37.950;-122.338;2023-04-08T02:37:50;9.05;;;1.83;;
70010;SDS011;59543;37.950;-122.338;2023-04-08T02:40:26;6.70;;;1.83;;
70010;SDS011;59543;37.950;-122.338;2023-04-08T02:42:54;6.57;;;1.75;;
70010;SDS011;59543;37.950;-122.338;2023-04-08T02:45:20;8.80;;;1.92;;
70010;SDS011;59543;37.950;-122.338;2023-04-08T02:47:47;7.97;;;1.40;;
70010;SDS011;59543;37.950;-122.338;2023-04-08T02:50:14;9.93;;;1.83;;
70010;SDS011;59543;37.950;-122.338;2023-04-08T02:52:41;7.90;;;1.58;;
70010;SDS011;59543;37.950;-122.338;2023-04-08T02:55:09;10.43;;;2.20;;
70010;SDS011;59543;37.950;-122.338;2023-04-08T02:57:36;8.55;;;1.58;;
70010;SDS011;59543;37.950;-122.338;2023-04-08T03:00:04;9.73;;;2.08;;
70010;SDS011;59543;37.950;-122.338;2023-04-08T03:02:31;11.38;;;2.47;;
70010;SDS011;59543;37.950;-122.338;2023-04-08T03:04:58;7.88;;;2.03;;
70010;SDS011;59543;37.950;-122.338;2023-04-08T03:07:25;10.15;;;2.20;;
70010;SDS011;59543;37.950;-122.338;2023-04-08T03:09:51;11.32;;;2.60;;
70010;SDS011;59543;37.950;-122.338;2023-04-08T03:12:19;10.68;;;2.17;;
70010;SDS011;59543;37.950;-122.338;2023-04-08T03:14:46;16.05;;;2.83;;
70010;SDS011;59543;37.950;-122.338;2023-04-08T03:17:13;18.95;;;3.13;;
70010;SDS011;59543;37.950;-122.338;2023-04-08T03:19:39;12.48;;;2.65;;
70010;SDS011;59543;37.950;-122.338;2023-04-08T03:22:05;15.68;;;3.13;;
70010;SDS011;59543;37.950;-122.338;2023-04-08T03:24:34;14.60;;;2.28;;
70010;SDS011;59543;37.950;-122.338;2023-04-08T03:27:01;13.48;;;2.60;;
70010;SDS011;59543;37.950;-122.338;2023-04-08T03:29:27;14.93;;;3.20;;
70010;SDS011;59543;37.950;-122.338;2023-04-08T03:31:54;13.65;;;3.08;;
70010;SDS011;59543;37.950;-122.338;2023-04-08T03:34:20;9.65;;;2.00;;
70010;SDS011;59543;37.950;-122.338;2023-04-08T03:36:46;19.33;;;3.25;;
70010;SDS011;59543;37.950;-122.338;2023-04-08T03:39:12;13.93;;;3.35;;
70010;SDS011;59543;37.950;-122.338;2023-04-08T03:41:38;17.08;;;3.47;;
70010;SDS011;59543;37.950;-122.338;2023-04-08T03:44:05;15.07;;;3.10;;
70010;SDS011;59543;37.950;-122.338;2023-04-08T03:46:31;9.43;;;3.08;;
70010;SDS011;59543;37.950;-122.338;2023-04-08T03:48:57;20.00;;;3.63;;
70010;SDS011;59543;37.950;-122.338;2023-04-08T03:51:23;14.40;;;3.47;;
70010;SDS011;59543;37.950;-122.338;2023-04-08T03:53:50;11.88;;;3.35;;
70010;SDS011;59543;37.950;-122.338;2023-04-08T03:56:16;16.88;;;3.45;;
70010;SDS011;59543;37.950;-122.338;2023-04-08T03:58:42;18.80;;;3.55;;
70010;SDS011;59543;37.950;-122.338;2023-04-08T04:01:08;23.67;;;3.75;;
70010;SDS011;59543;37.950;-122.338;2023-04-08T04:03:34;10.02;;;2.55;;
70010;SDS011;59543;37.950;-122.338;2023-04-08T04:06:01;10.43;;;2.30;;
70010;SDS011;59543;37.950;-122.338;2023-04-08T04:08:27;14.52;;;2.83;;
70010;SDS011;59543;37.950;-122.338;2023-04-08T04:10:53;8.68;;;2.28;;
70010;SDS011;59543;37.950;-122.338;2023-04-08T04:13:19;10.10;;;2.42;;
70010;SDS011;59543;37.950;-122.338;2023-04-08T04:15:46;15.55;;;2.90;;
70010;SDS011;59543;37.950;-122.338;2023-04-08T04:18:12;10.95;;;2.35;;
70010;SDS011;59543;37.950;-122.338;2023-04-08T04:20:39;13.88;;;2.85;;
70010;SDS011;59543;37.950;-122.338;2023-04-08T04:23:06;15.07;;;2.97;;
70010;SDS011;59543;37.950;-122.338;2023-04-08T04:25:33;16.13;;;2.65;;
70010;SDS011;59543;37.950;-122.338;2023-04-08T04:27:59;12.50;;;2.30;;
70010;SDS011;59543;37.950;-122.338;2023-04-08T04:30:27;10.88;;;2.08;;
70010;SDS011;59543;37.950;-122.338;2023-04-08T04:32:54;13.40;;;2.17;;
70010;SDS011;59543;37.950;-122.338;2023-04-08T04:35:21;10.35;;;1.95;;
70010;SDS011;59543;37.950;-122.338;2023-04-08T04:37:48;10.75;;;2.22;;
70010;SDS011;59543;37.950;-122.338;2023-04-08T04:40:16;10.95;;;2.30;;
70010;SDS011;59543;37.950;-122.338;2023-04-08T04:42:42;9.80;;;2.00;;
70010;SDS011;59543;37.950;-122.338;2023-04-08T04:45:08;12.90;;;2.20;;
70010;SDS011;59543;37.950;-122.338;2023-04-08T04:47:35;9.82;;;2.22;;
70010;SDS011;59543;37.950;-122.338;2023-04-08T04:50:01;13.35;;;2.40;;
70010;SDS011;59543;37.950;-122.338;2023-04-08T04:52:27;5.57;;;1.80;;
70010;SDS011;59543;37.950;-122.338;2023-04-08T04:54:55;11.40;;;2.30;;
70010;SDS011;59543;37.950;-122.338;2023-04-08T04:57:22;10.45;;;2.45;;
70010;SDS011;59543;37.950;-122.338;2023-04-08T04:59:48;8.70;;;2.08;;
70010;SDS011;59543;37.950;-122.338;2023-04-08T05:02:15;9.95;;;2.15;;
70010;SDS011;59543;37.950;-122.338;2023-04-08T05:04:41;7.28;;;1.85;;
70010;SDS011;59543;37.950;-122.338;2023-04-08T05:07:07;9.75;;;2.20;;
70010;SDS011;59543;37.950;-122.338;2023-04-08T05:09:33;9.15;;;2.25;;
70010;SDS011;59543;37.950;-122.338;2023-04-08T05:11:59;12.77;;;2.22;;
70010;SDS011;59543;37.950;-122.338;2023-04-08T05:14:27;7.57;;;2.05;;
70010;SDS011;59543;37.950;-122.338;2023-04-08T05:16:55;10.38;;;2.22;;
70010;SDS011;59543;37.950;-122.338;2023-04-08T05:19:21;14.88;;;2.25;;
70010;SDS011;59543;37.950;-122.338;2023-04-08T05:21:47;8.75;;;1.90;;
70010;SDS011;59543;37.950;-122.338;2023-04-08T05:24:14;7.53;;;1.90;;
70010;SDS011;59543;37.950;-122.338;2023-04-08T05:26:40;10.23;;;2.00;;
70010;SDS011;59543;37.950;-122.338;2023-04-08T05:29:06;10.95;;;2.05;;
70010;SDS011;59543;37.950;-122.338;2023-04-08T05:31:33;14.82;;;2.60;;
70010;SDS011;59543;37.950;-122.338;2023-04-08T05:33:59;13.52;;;2.20;;
70010;SDS011;59543;37.950;-122.338;2023-04-08T05:36:25;7.88;;;1.90;;
70010;SDS011;59543;37.950;-122.338;2023-04-08T05:38:52;8.73;;;2.70;;
70010;SDS011;59543;37.950;-122.338;2023-04-08T05:41:18;7.82;;;2.45;;
70010;SDS011;59543;37.950;-122.338;2023-04-08T05:43:45;9.10;;;1.88;;
70010;SDS011;59543;37.950;-122.338;2023-04-08T05:46:11;11.88;;;2.15;;
70010;SDS011;59543;37.950;-122.338;2023-04-08T05:48:37;12.75;;;2.30;;
70010;SDS011;59543;37.950;-122.338;2023-04-08T05:51:04;11.10;;;2.30;;
70010;SDS011;59543;37.950;-122.338;2023-04-08T05:53:30;10.27;;;1.95;;
70010;SDS011;59543;37.950;-122.338;2023-04-08T05:55:56;12.23;;;1.65;;
70010;SDS011;59543;37.950;-122.338;2023-04-08T05:58:22;10.50;;;1.88;;
70010;SDS011;59543;37.950;-122.338;2023-04-08T06:00:49;10.73;;;1.90;;
70010;SDS011;59543;37.950;-122.338;2023-04-08T06:03:15;6.90;;;1.70;;
70010;SDS011;59543;37.950;-122.338;2023-04-08T06:05:41;9.73;;;1.80;;
70010;SDS011;59543;37.950;-122.338;2023-04-08T06:08:08;9.52;;;1.58;;
70010;SDS011;59543;37.950;-122.338;2023-04-08T06:10:34;9.75;;;1.67;;
70010;SDS011;59543;37.950;-122.338;2023-04-08T06:13:00;10.05;;;1.60;;
70010;SDS011;59543;37.950;-122.338;2023-04-08T06:15:26;6.68;;;1.60;;
70010;SDS011;59543;37.950;-122.338;2023-04-08T06:17:53;10.93;;;2.20;;
70010;SDS011;59543;37.950;-122.338;2023-04-08T06:20:19;9.32;;;1.80;;
70010;SDS011;59543;37.950;-122.338;2023-04-08T06:22:45;9.60;;;2.67;;
70010;SDS011;59543;37.950;-122.338;2023-04-08T06:25:11;15.32;;;2.60;;
70010;SDS011;59543;37.950;-122.338;2023-04-08T06:27:37;13.93;;;2.20;;
70010;SDS011;59543;37.950;-122.338;2023-04-08T06:30:04;12.00;;;2.28;;
70010;SDS011;59543;37.950;-122.338;2023-04-08T06:32:31;10.20;;;2.08;;
70010;SDS011;59543;37.950;-122.338;2023-04-08T06:34:57;9.38;;;2.28;;
70010;SDS011;59543;37.950;-122.338;2023-04-08T06:37:23;10.30;;;1.70;;
70010;SDS011;59543;37.950;-122.338;2023-04-08T06:39:50;14.95;;;2.13;;
70010;SDS011;59543;37.950;-122.338;2023-04-08T06:42:16;15.02;;;2.47;;
70010;SDS011;59543;37.950;-122.338;2023-04-08T06:44:42;10.38;;;1.90;;
70010;SDS011;59543;37.950;-122.338;2023-04-08T06:47:08;13.68;;;2.00;;
70010;SDS011;59543;37.950;-122.338;2023-04-08T06:49:35;10.98;;;2.50;;
70010;SDS011;59543;37.950;-122.338;2023-04-08T06:52:01;5.88;;;1.77;;
70010;SDS011;59543;37.950;-122.338;2023-04-08T06:54:27;8.68;;;1.80;;
70010;SDS011;59543;37.950;-122.338;2023-04-08T06:56:54;10.82;;;2.90;;
70010;SDS011;59543;37.950;-122.338;2023-04-08T06:59:20;11.25;;;2.38;;
70010;SDS011;59543;37.950;-122.338;2023-04-08T07:01:46;12.70;;;3.00;;
70010;SDS011;59543;37.950;-122.338;2023-04-08T07:04:12;8.48;;;2.42;;
70010;SDS011;59543;37.950;-122.338;2023-04-08T07:06:39;10.30;;;2.35;;
70010;SDS011;59543;37.950;-122.338;2023-04-08T07:09:05;17.55;;;3.20;;
70010;SDS011;59543;37.950;-122.338;2023-04-08T07:11:32;11.45;;;2.38;;
70010;SDS011;59543;37.950;-122.338;2023-04-08T07:13:58;7.72;;;2.50;;
70010;SDS011;59543;37.950;-122.338;2023-04-08T07:16:24;9.20;;;2.55;;
70010;SDS011;59543;37.950;-122.338;2023-04-08T07:18:51;10.10;;;2.25;;
70010;SDS011;59543;37.950;-122.338;2023-04-08T07:21:17;8.57;;;2.50;;
70010;SDS011;59543;37.950;-122.338;2023-04-08T07:23:44;7.10;;;1.80;;
70010;SDS011;59543;37.950;-122.338;2023-04-08T07:26:10;13.55;;;1.98;;
70010;SDS011;59543;37.950;-122.338;2023-04-08T07:28:36;5.18;;;1.50;;
70010;SDS011;59543;37.950;-122.338;2023-04-08T07:31:13;9.15;;;1.80;;
70010;SDS011;59543;37.950;-122.338;2023-04-08T07:33:41;7.95;;;2.25;;
70010;SDS011;59543;37.950;-122.338;2023-04-08T07:36:08;9.82;;;2.00;;
70010;SDS011;59543;37.950;-122.338;2023-04-08T07:38:36;11.18;;;2.13;;
70010;SDS011;59543;37.950;-122.338;2023-04-08T07:41:06;10.32;;;2.00;;
70010;SDS011;59543;37.950;-122.338;2023-04-08T07:43:32;9.38;;;2.45;;
70010;SDS011;59543;37.950;-122.338;2023-04-08T07:46:02;9.05;;;2.72;;
70010;SDS011;59543;37.950;-122.338;2023-04-08T07:48:29;10.77;;;2.67;;
70010;SDS011;59543;37.950;-122.338;2023-04-08T07:50:56;9.43;;;3.35;;
70010;SDS011;59543;37.950;-122.338;2023-04-08T07:53:23;12.23;;;3.22;;
70010;SDS011;59543;37.950;-122.338;2023-04-08T07:55:50;8.95;;;2.53;;
70010;SDS011;59543;37.950;-122.338;2023-04-08T07:58:17;14.27;;;3.03;;
70010;SDS011;59543;37.950;-122.338;2023-04-08T08:00:43;10.30;;;2.40;;
70010;SDS011;59543;37.950;-122.338;2023-04-08T08:03:09;10.02;;;2.80;;
70010;SDS011;59543;37.950;-122.338;2023-04-08T08:05:36;10.25;;;2.50;;
70010;SDS011;59543;37.950;-122.338;2023-04-08T08:08:02;7.35;;;2.42;;
70010;SDS011;59543;37.950;-122.338;2023-04-08T08:10:28;11.50;;;2.35;;
70010;SDS011;59543;37.950;-122.338;2023-04-08T08:12:55;12.38;;;2.58;;
70010;SDS011;59543;37.950;-122.338;2023-04-08T08:15:21;12.52;;;3.05;;
70010;SDS011;59543;37.950;-122.338;2023-04-08T08:17:47;12.10;;;2.35;;
70010;SDS011;59543;37.950;-122.338;2023-04-08T08:20:13;8.85;;;2.53;;
70010;SDS011;59543;37.950;-122.338;2023-04-08T08:22:41;16.67;;;2.75;;
70010;SDS011;59543;37.950;-122.338;2023-04-08T08:25:08;9.02;;;2.63;;
70010;SDS011;59543;37.950;-122.338;2023-04-08T08:27:35;9.63;;;2.13;;
70010;SDS011;59543;37.950;-122.338;2023-04-08T08:30:02;10.90;;;2.38;;
70010;SDS011;59543;37.950;-122.338;2023-04-08T08:32:28;10.75;;;2.35;;
70010;SDS011;59543;37.950;-122.338;2023-04-08T08:34:54;7.97;;;2.42;;
70010;SDS011;59543;37.950;-122.338;2023-04-08T08:37:21;12.43;;;2.28;;
70010;SDS011;59543;37.950;-122.338;2023-04-08T08:39:47;9.77;;;2.58;;
70010;SDS011;59543;37.950;-122.338;2023-04-08T08:44:47;6.63;;;2.15;;
70010;SDS011;59543;37.950;-122.338;2023-04-08T08:47:14;10.23;;;2.13;;
70010;SDS011;59543;37.950;-122.338;2023-04-08T08:49:40;7.68;;;2.13;;
70010;SDS011;59543;37.950;-122.338;2023-04-08T08:52:07;9.23;;;2.35;;
70010;SDS011;59543;37.950;-122.338;2023-04-08T08:54:34;10.63;;;2.13;;
70010;SDS011;59543;37.950;-122.338;2023-04-08T08:57:00;7.70;;;1.85;;
70010;SDS011;59543;37.950;-122.338;2023-04-08T08:59:26;11.98;;;2.30;;
70010;SDS011;59543;37.950;-122.338;2023-04-08T09:01:53;10.85;;;2.10;;
70010;SDS011;59543;37.950;-122.338;2023-04-08T09:04:20;15.32;;;2.67;;
70010;SDS011;59543;37.950;-122.338;2023-04-08T09:06:47;10.65;;;2.15;;
70010;SDS011;59543;37.950;-122.338;2023-04-08T09:09:32;12.50;;;2.33;;
70010;SDS011;59543;37.950;-122.338;2023-04-08T09:12:13;11.57;;;2.85;;
70010;SDS011;59543;37.950;-122.338;2023-04-08T09:14:40;10.18;;;2.00;;
70010;SDS011;59543;37.950;-122.338;2023-04-08T09:17:07;9.00;;;2.08;;
70010;SDS011;59543;37.950;-122.338;2023-04-08T09:19:33;10.20;;;2.53;;
70010;SDS011;59543;37.950;-122.338;2023-04-08T09:22:06;10.25;;;2.00;;
70010;SDS011;59543;37.950;-122.338;2023-04-08T09:24:36;9.45;;;2.60;;
70010;SDS011;59543;37.950;-122.338;2023-04-08T09:27:05;11.02;;;2.38;;
70010;SDS011;59543;37.950;-122.338;2023-04-08T09:29:32;8.00;;;1.88;;
70010;SDS011;59543;37.950;-122.338;2023-04-08T09:31:59;9.90;;;1.85;;
70010;SDS011;59543;37.950;-122.338;2023-04-08T09:34:27;10.73;;;2.30;;
70010;SDS011;59543;37.950;-122.338;2023-04-08T09:36:55;11.63;;;2.13;;
70010;SDS011;59543;37.950;-122.338;2023-04-08T09:39:21;9.60;;;2.22;;
70010;SDS011;59543;37.950;-122.338;2023-04-08T09:41:48;8.95;;;1.55;;
70010;SDS011;59543;37.950;-122.338;2023-04-08T09:44:16;9.25;;;1.75;;
70010;SDS011;59543;37.950;-122.338;2023-04-08T09:49:35;10.27;;;2.05;;
70010;SDS011;59543;37.950;-122.338;2023-04-08T09:57:30;14.07;;;1.70;;
70010;SDS011;59543;37.950;-122.338;2023-04-08T10:02:33;8.05;;;1.60;;
70010;SDS011;59543;37.950;-122.338;2023-04-08T10:05:13;5.60;;;1.77;;
70010;SDS011;59543;37.950;-122.338;2023-04-08T10:07:41;8.45;;;2.22;;
70010;SDS011;59543;37.950;-122.338;2023-04-08T10:10:08;11.82;;;2.33;;
70010;SDS011;59543;37.950;-122.338;2023-04-08T10:12:37;6.88;;;2.10;;
70010;SDS011;59543;37.950;-122.338;2023-04-08T10:15:23;11.68;;;1.83;;
70010;SDS011;59543;37.950;-122.338;2023-04-08T10:25:34;9.85;;;2.05;;
70010;SDS011;59543;37.950;-122.338;2023-04-08T10:30:42;8.18;;;1.88;;
70010;SDS011;59543;37.950;-122.338;2023-04-08T10:33:15;8.32;;;1.77;;
70010;SDS011;59543;37.950;-122.338;2023-04-08T10:35:48;11.48;;;2.08;;
70010;SDS011;59543;37.950;-122.338;2023-04-08T10:38:18;6.88;;;1.48;;
70010;SDS011;59543;37.950;-122.338;2023-04-08T10:40:46;8.73;;;2.28;;
70010;SDS011;59543;37.950;-122.338;2023-04-08T10:43:13;10.18;;;1.75;;
70010;SDS011;59543;37.950;-122.338;2023-04-08T10:45:40;11.23;;;2.05;;
70010;SDS011;59543;37.950;-122.338;2023-04-08T10:48:21;6.65;;;1.73;;
70010;SDS011;59543;37.950;-122.338;2023-04-08T10:56:10;7.85;;;2.03;;
70010;SDS011;59543;37.950;-122.338;2023-04-08T10:58:52;6.28;;;2.08;;
70010;SDS011;59543;37.950;-122.338;2023-04-08T11:01:23;6.85;;;1.70;;
70010;SDS011;59543;37.950;-122.338;2023-04-08T11:03:50;7.30;;;2.25;;
70010;SDS011;59543;37.950;-122.338;2023-04-08T11:06:16;7.75;;;2.08;;
70010;SDS011;59543;37.950;-122.338;2023-04-08T11:08:43;6.63;;;1.90;;
70010;SDS011;59543;37.950;-122.338;2023-04-08T11:11:10;6.70;;;1.80;;
70010;SDS011;59543;37.950;-122.338;2023-04-08T11:13:38;8.88;;;2.03;;
70010;SDS011;59543;37.950;-122.338;2023-04-08T11:16:06;8.18;;;2.10;;
70010;SDS011;59543;37.950;-122.338;2023-04-08T11:18:33;11.73;;;2.08;;
70010;SDS011;59543;37.950;-122.338;2023-04-08T11:21:02;8.93;;;1.80;;
70010;SDS011;59543;37.950;-122.338;2023-04-08T11:23:33;10.18;;;1.67;;
70010;SDS011;59543;37.950;-122.338;2023-04-08T11:26:00;7.38;;;1.67;;
70010;SDS011;59543;37.950;-122.338;2023-04-08T11:28:27;7.05;;;1.77;;
70010;SDS011;59543;37.950;-122.338;2023-04-08T11:30:54;4.75;;;1.85;;
70010;SDS011;59543;37.950;-122.338;2023-04-08T11:33:20;9.50;;;1.55;;
70010;SDS011;59543;37.950;-122.338;2023-04-08T11:35:49;11.27;;;1.70;;
70010;SDS011;59543;37.950;-122.338;2023-04-08T11:38:16;10.85;;;1.75;;
70010;SDS011;59543;37.950;-122.338;2023-04-08T11:40:54;11.27;;;1.88;;
70010;SDS011;59543;37.950;-122.338;2023-04-08T11:43:23;13.50;;;2.42;;
70010;SDS011;59543;37.950;-122.338;2023-04-08T11:45:50;7.93;;;1.60;;
70010;SDS011;59543;37.950;-122.338;2023-04-08T11:48:16;9.35;;;2.10;;
70010;SDS011;59543;37.950;-122.338;2023-04-08T11:50:43;11.38;;;2.00;;
70010;SDS011;59543;37.950;-122.338;2023-04-08T11:53:16;7.78;;;1.80;;
70010;SDS011;59543;37.950;-122.338;2023-04-08T11:58:13;15.70;;;2.50;;
70010;SDS011;59543;37.950;-122.338;2023-04-08T12:00:40;8.02;;;1.50;;
70010;SDS011;59543;37.950;-122.338;2023-04-08T12:03:07;10.18;;;1.77;;
70010;SDS011;59543;37.950;-122.338;2023-04-08T12:05:33;13.40;;;2.25;;
70010;SDS011;59543;37.950;-122.338;2023-04-08T12:08:00;12.38;;;1.88;;
70010;SDS011;59543;37.950;-122.338;2023-04-08T12:10:27;10.60;;;1.60;;
70010;SDS011;59543;37.950;-122.338;2023-04-08T12:12:53;6.93;;;1.60;;
70010;SDS011;59543;37.950;-122.338;2023-04-08T12:15:20;11.30;;;1.98;;
70010;SDS011;59543;37.950;-122.338;2023-04-08T12:17:46;9.57;;;1.90;;
70010;SDS011;59543;37.950;-122.338;2023-04-08T12:20:12;6.97;;;2.00;;
70010;SDS011;59543;37.950;-122.338;2023-04-08T12:22:41;9.45;;;2.30;;
70010;SDS011;59543;37.950;-122.338;2023-04-08T12:25:07;10.93;;;2.88;;
70010;SDS011;59543;37.950;-122.338;2023-04-08T12:27:34;11.93;;;3.78;;
70010;SDS011;59543;37.950;-122.338;2023-04-08T12:30:00;13.15;;;4.80;;
70010;SDS011;59543;37.950;-122.338;2023-04-08T12:32:27;15.13;;;4.70;;
70010;SDS011;59543;37.950;-122.338;2023-04-08T12:34:54;13.10;;;4.43;;
70010;SDS011;59543;37.950;-122.338;2023-04-08T12:37:20;8.80;;;3.38;;
70010;SDS011;59543;37.950;-122.338;2023-04-08T12:39:46;9.80;;;3.25;;
70010;SDS011;59543;37.950;-122.338;2023-04-08T12:42:13;7.63;;;2.45;;
70010;SDS011;59543;37.950;-122.338;2023-04-08T12:44:39;12.38;;;2.70;;
70010;SDS011;59543;37.950;-122.338;2023-04-08T12:47:06;11.30;;;2.50;;
70010;SDS011;59543;37.950;-122.338;2023-04-08T12:49:32;7.18;;;2.28;;
70010;SDS011;59543;37.950;-122.338;2023-04-08T12:51:58;15.30;;;1.95;;
70010;SDS011;59543;37.950;-122.338;2023-04-08T12:54:24;7.88;;;1.75;;
70010;SDS011;59543;37.950;-122.338;2023-04-08T12:56:50;9.48;;;1.92;;
70010;SDS011;59543;37.950;-122.338;2023-04-08T13:01:43;11.70;;;2.45;;
70010;SDS011;59543;37.950;-122.338;2023-04-08T13:04:09;11.88;;;1.73;;
70010;SDS011;59543;37.950;-122.338;2023-04-08T13:06:35;11.75;;;2.35;;
70010;SDS011;59543;37.950;-122.338;2023-04-08T13:11:27;9.65;;;1.65;;
70010;SDS011;59543;37.950;-122.338;2023-04-08T13:13:54;5.50;;;1.55;;
70010;SDS011;59543;37.950;-122.338;2023-04-08T13:16:20;11.13;;;1.75;;
70010;SDS011;59543;37.950;-122.338;2023-04-08T13:18:46;10.35;;;1.60;;
70010;SDS011;59543;37.950;-122.338;2023-04-08T13:21:12;8.15;;;1.92;;
70010;SDS011;59543;37.950;-122.338;2023-04-08T13:23:39;6.90;;;1.83;;
70010;SDS011;59543;37.950;-122.338;2023-04-08T13:26:05;8.95;;;1.80;;
70010;SDS011;59543;37.950;-122.338;2023-04-08T13:28:31;9.85;;;1.52;;
70010;SDS011;59543;37.950;-122.338;2023-04-08T13:33:24;8.05;;;2.03;;
70010;SDS011;59543;37.950;-122.338;2023-04-08T13:35:50;6.80;;;1.50;;
70010;SDS011;59543;37.950;-122.338;2023-04-08T13:38:16;10.15;;;1.80;;
70010;SDS011;59543;37.950;-122.338;2023-04-08T13:40:42;8.57;;;1.40;;
70010;SDS011;59543;37.950;-122.338;2023-04-08T13:43:09;7.97;;;1.80;;
70010;SDS011;59543;37.950;-122.338;2023-04-08T13:45:35;6.65;;;1.63;;
70010;SDS011;59543;37.950;-122.338;2023-04-08T13:48:02;11.25;;;2.20;;
70010;SDS011;59543;37.950;-122.338;2023-04-08T13:50:29;6.70;;;1.67;;
70010;SDS011;59543;37.950;-122.338;2023-04-08T13:52:55;13.55;;;2.40;;
70010;SDS011;59543;37.950;-122.338;2023-04-08T13:55:21;8.23;;;1.52;;
70010;SDS011;59543;37.950;-122.338;2023-04-08T13:57:48;9.88;;;2.30;;
70010;SDS011;59543;37.950;-122.338;2023-04-08T14:00:14;9.45;;;1.80;;
70010;SDS011;59543;37.950;-122.338;2023-04-08T14:02:40;11.02;;;1.20;;
70010;SDS011;59543;37.950;-122.338;2023-04-08T14:05:07;8.20;;;1.15;;
70010;SDS011;59543;37.950;-122.338;2023-04-08T14:07:33;12.82;;;1.60;;
70010;SDS011;59543;37.950;-122.338;2023-04-08T14:10:00;9.32;;;1.63;;
70010;SDS011;59543;37.950;-122.338;2023-04-08T14:12:26;8.85;;;1.58;;
70010;SDS011;59543;37.950;-122.338;2023-04-08T14:17:18;10.20;;;1.20;;
70010;SDS011;59543;37.950;-122.338;2023-04-08T14:19:46;7.53;;;1.63;;
70010;SDS011;59543;37.950;-122.338;2023-04-08T14:22:13;7.35;;;1.58;;
70010;SDS011;59543;37.950;-122.338;2023-04-08T14:24:40;7.90;;;1.20;;
70010;SDS011;59543;37.950;-122.338;2023-04-08T14:27:06;12.60;;;1.95;;
70010;SDS011;59543;37.950;-122.338;2023-04-08T14:29:33;6.40;;;1.45;;
70010;SDS011;59543;37.950;-122.338;2023-04-08T14:31:59;7.78;;;1.67;;
70010;SDS011;59543;37.950;-122.338;2023-04-08T14:34:26;9.93;;;1.80;;
70010;SDS011;59543;37.950;-122.338;2023-04-08T14:36:52;15.45;;;2.13;;
70010;SDS011;59543;37.950;-122.338;2023-04-08T14:39:18;9.07;;;2.30;;
70010;SDS011;59543;37.950;-122.338;2023-04-08T14:41:44;8.73;;;2.50;;
70010;SDS011;59543;37.950;-122.338;2023-04-08T14:44:11;10.43;;;2.92;;
70010;SDS011;59543;37.950;-122.338;2023-04-08T14:46:38;11.18;;;3.20;;
70010;SDS011;59543;37.950;-122.338;2023-04-08T14:49:04;9.25;;;2.47;;